Time;durP1;ratioP1;P1;durP2;ratioP2;P2;SDS_P1;SDS_P2;PMS_P1;PMS_P2;Temp;Humidity;BMP_temperature;BMP_pressure;BME280_temperature;BME280_humidity;BME280_pressure;Samples;Min_cycle;Max_cycle;Signal;HPM_P1;HPM_P2
2023/06/04 00:02:13;;;;;;;8.02;5.95;;;21.80;71.10;;;;;;5075679;28;20073;-72
2023/06/04 00:04:39;;;;;;;8.55;5.88;;;21.80;71.00;;;;;;5076415;28;20472;-70
2023/06/04 00:07:05;;;;;;;8.75;5.40;;;21.70;70.80;;;;;;5076306;28;20028;-70
2023/06/04 00:09:31;;;;;;;9.18;5.82;;;21.70;70.50;;;;;;5076443;28;20028;-70
2023/06/04 00:11:57;;;;;;;9.32;5.80;;;21.70;71.60;;;;;;5076354;28;20469;-70
2023/06/04 00:14:23;;;;;;;9.45;5.43;;;21.70;71.40;;;;;;5076265;28;20443;-71
2023/06/04 00:24:12;;;;;;;11.15;5.95;;;21.60;71.50;;;;;;4994853;28;20077;-72
2023/06/04 00:40:21;;;;;;;9.60;5.88;;;21.50;72.10;;;;;;4979797;28;20404;-73
2023/06/04 00:42:49;;;;;;;6.97;5.28;;;21.40;72.10;;;;;;5075101;28;20016;-72
2023/06/04 00:45:18;;;;;;;8.88;5.47;;;21.50;72.10;;;;;;5074933;28;20034;-72
2023/06/04 00:47:45;;;;;;;9.68;5.78;;;21.40;72.40;;;;;;5057274;28;20055;-72
2023/06/04 00:50:11;;;;;;;9.95;6.07;;;21.40;72.50;;;;;;5075188;28;20017;-71
2023/06/04 00:52:37;;;;;;;11.18;5.50;;;21.30;72.90;;;;;;5075088;28;20028;-72
2023/06/04 00:55:03;;;;;;;8.25;5.60;;;21.30;72.70;;;;;;5075012;28;20032;-72
2023/06/04 00:57:28;;;;;;;11.65;6.07;;;21.30;72.80;;;;;;5074140;28;20422;-71
2023/06/04 00:59:54;;;;;;;12.18;5.45;;;21.30;72.90;;;;;;5072452;28;20037;-72
2023/06/04 01:02:22;;;;;;;8.80;5.90;;;21.20;72.90;;;;;;5072009;28;20086;-72
2023/06/04 01:05:26;;;;;;;7.25;5.35;;;21.20;72.90;;;;;;5073225;28;20486;-72
2023/06/04 01:07:53;;;;;;;10.05;5.90;;;21.20;72.50;;;;;;5074563;28;20472;-72
2023/06/04 01:10:18;;;;;;;10.20;6.20;;;21.20;72.50;;;;;;5074643;28;20033;-72
2023/06/04 01:12:44;;;;;;;9.13;5.82;;;21.20;72.70;;;;;;5056055;28;20024;-72
2023/06/04 01:15:11;;;;;;;8.93;5.32;;;21.20;72.60;;;;;;5074353;28;20024;-72
2023/06/04 01:17:41;;;;;;;8.82;5.93;;;21.20;72.70;;;;;;5074710;28;20091;-72
2023/06/04 01:20:32;;;;;;;9.65;6.07;;;21.20;72.70;;;;;;5074215;28;20032;-72
2023/06/04 01:23:16;;;;;;;9.65;5.32;;;21.20;72.50;;;;;;5074259;28;20024;-72
2023/06/04 01:25:43;;;;;;;15.02;5.95;;;21.20;72.40;;;;;;5074447;28;20027;-72
2023/06/04 01:28:11;;;;;;;8.68;5.35;;;21.20;72.30;;;;;;5074111;28;20055;-72
2023/06/04 01:30:43;;;;;;;7.88;6.28;;;21.20;72.60;;;;;;5074156;28;20073;-72
2023/06/04 01:33:10;;;;;;;11.98;5.53;;;21.20;72.80;;;;;;5074246;28;20034;-73
2023/06/04 01:35:36;;;;;;;13.02;5.50;;;21.20;72.80;;;;;;5073894;28;20103;-72
2023/06/04 01:38:03;;;;;;;11.70;5.95;;;21.20;72.50;;;;;;5074034;28;20439;-72
2023/06/04 01:40:29;;;;;;;9.30;5.53;;;21.20;72.40;;;;;;5074156;28;20027;-71
2023/06/04 01:42:55;;;;;;;9.70;5.60;;;21.20;72.40;;;;;;5074339;28;20040;-71
2023/06/04 01:45:22;;;;;;;14.38;5.53;;;21.20;72.40;;;;;;5074166;28;20091;-71
2023/06/04 01:47:49;;;;;;;11.20;5.38;;;21.20;72.30;;;;;;5074605;28;20098;-70
2023/06/04 01:50:16;;;;;;;10.40;5.75;;;21.20;72.00;;;;;;5074523;28;20529;-71
2023/06/04 01:52:56;;;;;;;11.18;5.82;;;21.20;72.00;;;;;;5074769;28;20074;-70
2023/06/04 01:55:35;;;;;;;9.65;5.90;;;21.10;72.30;;;;;;5074259;28;20060;-72
2023/06/04 02:12:42;;;;;;;9.98;5.55;;;21.10;73.00;;;;;;4952232;28;20575;-72
2023/06/04 02:18:30;;;;;;;9.82;5.82;;;21.10;73.50;;;;;;4975310;28;20052;-70
2023/06/04 02:20:58;;;;;;;9.93;5.78;;;21.00;73.40;;;;;;4995002;28;20028;-69
2023/06/04 02:23:24;;;;;;;8.98;5.55;;;21.00;73.10;;;;;;5051637;28;20393;-72
2023/06/04 02:25:50;;;;;;;9.45;5.28;;;21.00;73.00;;;;;;5053343;28;20028;-72
2023/06/04 02:28:16;;;;;;;11.82;5.47;;;21.00;72.90;;;;;;5053237;28;20439;-72
2023/06/04 02:30:43;;;;;;;11.20;5.18;;;21.00;72.90;;;;;;5053150;28;20025;-72
2023/06/04 02:33:09;;;;;;;10.57;5.55;;;21.00;73.00;;;;;;5053126;28;20436;-72
2023/06/04 02:35:36;;;;;;;12.00;5.60;;;21.00;73.00;;;;;;5053154;28;20025;-72
2023/06/04 02:38:02;;;;;;;8.68;5.35;;;21.00;73.20;;;;;;5052791;28;20107;-72
2023/06/04 02:40:29;;;;;;;9.80;5.65;;;21.00;73.00;;;;;;5034980;28;20056;-72
2023/06/04 02:42:56;;;;;;;9.38;5.82;;;21.00;73.00;;;;;;5053105;28;20063;-72
2023/06/04 02:45:22;;;;;;;12.63;6.32;;;21.00;73.10;;;;;;5052974;28;20592;-72
2023/06/04 02:47:48;;;;;;;13.25;6.00;;;21.00;73.00;;;;;;5052526;28;20497;-71
2023/06/04 02:50:17;;;;;;;7.65;5.30;;;21.00;73.10;;;;;;5052830;28;20098;-72
2023/06/04 02:52:43;;;;;;;8.35;6.00;;;21.00;73.10;;;;;;5053010;28;20484;-73
2023/06/04 02:55:11;;;;;;;11.45;5.95;;;21.00;73.00;;;;;;5052817;28;20021;-70
2023/06/04 02:57:39;;;;;;;7.63;5.55;;;21.00;73.20;;;;;;5051872;28;20472;-72
2023/06/04 03:00:12;;;;;;;12.05;5.53;;;21.00;73.40;;;;;;5052681;28;20494;-71
2023/06/04 03:02:42;;;;;;;10.30;5.80;;;21.00;73.50;;;;;;5052819;28;20055;-71
2023/06/04 03:05:10;;;;;;;13.13;5.57;;;21.00;73.60;;;;;;5052566;28;20036;-72
2023/06/04 03:07:37;;;;;;;11.10;5.55;;;20.90;73.40;;;;;;5052302;28;20029;-72
2023/06/04 03:10:04;;;;;;;8.73;5.32;;;21.00;73.30;;;;;;5052652;28;20522;-72
2023/06/04 03:12:30;;;;;;;9.68;5.90;;;20.90;73.40;;;;;;5052734;28;20541;-72
2023/06/04 03:14:56;;;;;;;10.85;5.50;;;20.90;73.40;;;;;;5052581;28;20104;-72
2023/06/04 03:17:22;;;;;;;8.70;5.55;;;21.00;73.50;;;;;;5071230;28;20037;-72
2023/06/04 03:19:48;;;;;;;7.57;5.47;;;20.90;73.30;;;;;;5073238;28;20048;-71
2023/06/04 03:22:14;;;;;;;10.90;5.65;;;21.00;73.40;;;;;;5055073;28;20032;-72
2023/06/04 03:24:41;;;;;;;10.35;5.80;;;21.00;73.20;;;;;;5073106;28;20035;-72
2023/06/04 03:27:09;;;;;;;9.38;5.55;;;21.00;73.00;;;;;;5073053;28;20393;-72
2023/06/04 03:29:36;;;;;;;7.72;5.85;;;21.00;72.90;;;;;;5073279;28;20436;-72
2023/06/04 03:36:18;;;;;;;;;;;;;;;;;;;;;
2023/06/04 03:42:56;;;;;;;13.75;5.40;;;21.00;72.90;;;;;;5011418;28;20045;-72
2023/06/04 03:49:47;;;;;;;11.18;5.25;;;21.00;72.90;;;;;;4875952;29;20041;-73
2023/06/04 03:52:50;;;;;;;12.05;5.80;;;20.90;73.00;;;;;;4861046;29;20048;-73
2023/06/04 03:55:16;;;;;;;13.05;5.75;;;20.90;73.10;;;;;;4877499;29;20104;-72
2023/06/04 03:57:42;;;;;;;9.32;5.20;;;20.90;73.20;;;;;;4895061;29;20043;-72
2023/06/04 04:00:13;;;;;;;10.18;6.03;;;20.90;73.30;;;;;;4921615;28;20501;-72
2023/06/04 04:02:40;;;;;;;13.77;6.32;;;20.90;73.40;;;;;;4995035;28;20407;-72
2023/06/04 04:05:07;;;;;;;8.45;5.75;;;20.90;73.40;;;;;;5053848;28;20444;-72
2023/06/04 04:07:33;;;;;;;8.35;5.63;;;21.00;73.60;;;;;;5071888;28;20044;-72
2023/06/04 04:09:58;;;;;;;8.20;5.72;;;20.90;73.80;;;;;;5075669;28;20078;-73
2023/06/04 04:12:24;;;;;;;8.88;5.70;;;21.00;74.00;;;;;;5075737;28;20023;-72
2023/06/04 04:14:50;;;;;;;8.52;5.80;;;21.00;74.10;;;;;;5075463;28;20028;-73
2023/06/04 04:17:16;;;;;;;8.02;5.25;;;21.00;74.10;;;;;;5075020;28;20048;-72
2023/06/04 04:19:41;;;;;;;10.93;5.28;;;21.00;74.10;;;;;;5075219;28;20024;-73
2023/06/04 04:22:08;;;;;;;11.35;5.15;;;21.10;74.10;;;;;;5075378;28;20032;-72
2023/06/04 04:24:39;;;;;;;9.73;5.40;;;21.10;74.20;;;;;;5075392;28;20370;-72
2023/06/04 04:27:05;;;;;;;9.02;5.60;;;21.10;74.30;;;;;;5075320;28;20508;-72
2023/06/04 04:29:34;;;;;;;6.80;5.38;;;21.20;74.40;;;;;;5075251;28;20021;-72
2023/06/04 04:32:00;;;;;;;13.82;6.25;;;21.20;73.60;;;;;;5075136;28;20021;-72
2023/06/04 04:34:27;;;;;;;11.18;5.55;;;21.20;73.30;;;;;;5075361;28;20020;-72
2023/06/04 04:36:52;;;;;;;21.63;7.15;;;21.20;73.70;;;;;;5075353;28;20800;-72
2023/06/04 04:39:24;;;;;;;28.75;9.55;;;21.20;76.70;;;;;;5074943;28;20016;-72
2023/06/04 04:41:50;;;;;;;22.55;8.93;;;21.10;79.60;;;;;;5074879;28;20028;-72
2023/06/04 04:44:15;;;;;;;21.27;8.07;;;21.00;81.90;;;;;;5074672;28;20107;-73
2023/06/04 04:46:41;;;;;;;16.02;8.63;;;21.00;82.80;;;;;;5074831;28;20135;-72
2023/06/04 04:49:07;;;;;;;14.32;7.82;;;20.90;83.60;;;;;;5074870;28;20024;-73
2023/06/04 04:51:33;;;;;;;11.48;7.40;;;20.80;84.30;;;;;;5074894;28;20052;-72
2023/06/04 04:54:02;;;;;;;12.85;7.55;;;20.80;85.30;;;;;;5074715;28;20024;-73
2023/06/04 04:56:28;;;;;;;11.70;7.57;;;20.70;86.00;;;;;;5074762;28;20476;-73
2023/06/04 04:58:54;;;;;;;16.83;7.57;;;20.70;86.70;;;;;;5074861;28;20436;-72
2023/06/04 05:01:21;;;;;;;11.95;7.72;;;20.70;86.80;;;;;;5075344;28;20389;-72
2023/06/04 05:03:48;;;;;;;12.45;7.30;;;20.60;87.50;;;;;;5075127;28;20384;-72
2023/06/04 05:06:14;;;;;;;11.85;7.47;;;20.60;87.80;;;;;;5075076;28;20032;-72
2023/06/04 05:09:17;;;;;;;12.93;6.95;;;20.50;88.20;;;;;;5074875;28;20031;-72
2023/06/04 05:12:36;;;;;;;10.35;7.43;;;20.50;88.30;;;;;;5074601;28;20029;-72
2023/06/04 05:15:47;;;;;;;8.57;7.00;;;20.50;89.40;;;;;;5069163;28;20090;-71
2023/06/04 05:28:29;;;;;;;15.35;5.88;;;20.40;90.20;;;;;;4899985;28;20536;-73
2023/06/04 05:31:48;;;;;;;7.32;5.85;;;20.40;90.30;;;;;;5042537;28;20033;-73
2023/06/04 05:34:16;;;;;;;9.68;6.22;;;20.40;90.10;;;;;;5053958;28;20358;-73
2023/06/04 05:36:42;;;;;;;14.30;6.40;;;20.40;90.30;;;;;;5054224;28;20071;-73
2023/06/04 05:39:10;;;;;;;12.93;6.78;;;20.30;90.00;;;;;;5053982;28;20373;-72
2023/06/04 05:41:36;;;;;;;11.23;6.30;;;20.30;90.20;;;;;;5053807;28;20025;-72
2023/06/04 05:44:03;;;;;;;9.57;6.90;;;20.30;90.30;;;;;;5053903;28;20033;-72
2023/06/04 05:46:28;;;;;;;11.68;7.35;;;20.30;90.50;;;;;;5053911;28;20057;-72
2023/06/04 05:48:54;;;;;;;8.77;6.85;;;20.30;90.70;;;;;;5053908;28;20065;-72
2023/06/04 05:51:21;;;;;;;8.15;6.50;;;20.20;91.00;;;;;;5053858;28;20472;-72
2023/06/04 05:53:47;;;;;;;10.68;6.90;;;20.30;91.20;;;;;;5052319;28;20037;-73
2023/06/04 05:56:13;;;;;;;11.88;7.05;;;20.30;91.40;;;;;;5053614;28;20096;-72
2023/06/04 05:58:39;;;;;;;11.15;6.70;;;20.30;91.40;;;;;;5053547;28;20032;-72
2023/06/04 06:01:05;;;;;;;12.20;6.93;;;20.20;91.40;;;;;;5053592;28;20017;-72
2023/06/04 06:03:32;;;;;;;7.30;6.20;;;20.20;91.40;;;;;;5053371;28;20074;-73
2023/06/04 06:05:58;;;;;;;13.43;7.18;;;20.20;91.50;;;;;;5053206;28;20038;-73
2023/06/04 06:08:24;;;;;;;11.75;7.10;;;20.20;91.50;;;;;;5052231;28;20033;-71
2023/06/04 06:10:50;;;;;;;13.45;7.72;;;20.20;91.60;;;;;;5050523;28;20128;-72
2023/06/04 06:13:16;;;;;;;15.70;7.35;;;20.10;91.80;;;;;;5050620;28;20079;-71
2023/06/04 06:15:42;;;;;;;14.30;7.38;;;20.10;91.90;;;;;;5052106;28;20029;-71
2023/06/04 06:18:07;;;;;;;11.57;7.07;;;20.20;92.00;;;;;;5052960;28;20069;-70
2023/06/04 06:20:33;;;;;;;12.43;7.38;;;20.20;92.00;;;;;;5053333;28;20036;-72
2023/06/04 06:23:06;;;;;;;11.38;7.20;;;20.20;92.10;;;;;;5052838;28;20093;-69
2023/06/04 06:25:32;;;;;;;14.77;7.32;;;20.10;91.90;;;;;;5053252;28;20071;-71
2023/06/04 06:27:58;;;;;;;12.07;7.88;;;20.10;92.00;;;;;;5034879;28;20444;-72
2023/06/04 06:30:24;;;;;;;13.63;7.13;;;20.10;92.00;;;;;;5052993;28;20025;-71
2023/06/04 06:32:50;;;;;;;17.80;6.78;;;20.10;91.90;;;;;;5052734;28;20033;-72
2023/06/04 06:35:17;;;;;;;13.07;7.10;;;20.10;91.90;;;;;;5053321;28;20028;-72
2023/06/04 06:37:43;;;;;;;15.30;6.82;;;20.10;92.00;;;;;;5053173;28;20071;-73
2023/06/04 06:40:10;;;;;;;9.00;6.50;;;20.10;92.30;;;;;;5052690;28;20025;-72
2023/06/04 06:42:36;;;;;;;13.45;6.82;;;20.10;92.40;;;;;;5053309;28;20127;-72
2023/06/04 06:45:02;;;;;;;12.07;7.25;;;20.10;92.40;;;;;;5052607;28;20025;-71
2023/06/04 06:48:16;;;;;;;12.48;7.32;;;20.20;92.60;;;;;;5052020;28;20064;-72
2023/06/04 06:58:46;;;;;;;10.48;6.70;;;20.20;92.40;;;;;;5007843;28;20489;-72
2023/06/04 07:04:33;;;;;;;10.93;6.72;;;20.10;92.70;;;;;;4971414;28;20042;-72
2023/06/04 07:07:27;;;;;;;7.95;6.32;;;20.10;92.80;;;;;;5011566;28;20053;-72
2023/06/04 07:10:17;;;;;;;10.82;6.45;;;20.10;92.90;;;;;;5032369;28;20359;-71
2023/06/04 07:12:43;;;;;;;11.40;6.60;;;20.10;92.70;;;;;;5032907;28;20083;-72
2023/06/04 07:15:09;;;;;;;13.20;7.47;;;20.10;92.90;;;;;;5032622;28;20366;-72
2023/06/04 07:17:36;;;;;;;12.43;6.22;;;20.10;93.00;;;;;;5048870;28;20045;-72
2023/06/04 07:20:03;;;;;;;9.73;6.30;;;20.10;93.30;;;;;;5052583;28;20388;-72
2023/06/04 07:22:29;;;;;;;12.35;6.45;;;20.10;93.40;;;;;;5052872;28;20071;-71
2023/06/04 07:24:55;;;;;;;10.15;6.93;;;20.10;93.40;;;;;;5052337;28;20037;-71
2023/06/04 07:27:22;;;;;;;10.35;6.80;;;20.00;93.60;;;;;;5034572;28;20033;-71
2023/06/04 07:29:47;;;;;;;21.85;7.72;;;20.10;93.80;;;;;;5051747;28;20024;-71
2023/06/04 07:32:13;;;;;;;15.10;8.05;;;20.00;93.90;;;;;;5051809;28;20039;-71
2023/06/04 07:34:39;;;;;;;12.50;6.90;;;20.00;94.00;;;;;;5051283;28;20092;-71
2023/06/04 07:37:05;;;;;;;11.27;6.07;;;20.00;94.10;;;;;;5052056;28;20029;-71
2023/06/04 07:39:31;;;;;;;10.63;5.80;;;20.00;93.90;;;;;;5052087;28;20483;-71
2023/06/04 07:41:57;;;;;;;15.38;6.30;;;20.00;93.80;;;;;;5052128;28;20060;-71
2023/06/04 07:44:23;;;;;;;12.60;6.55;;;19.90;93.90;;;;;;5054914;28;20021;-71
2023/06/04 07:46:48;;;;;;;12.48;6.15;;;19.90;94.00;;;;;;5055812;28;20033;-71
2023/06/04 07:49:15;;;;;;;9.77;5.38;;;19.90;94.00;;;;;;5054235;28;20025;-72
2023/06/04 07:51:41;;;;;;;9.27;5.35;;;19.90;94.10;;;;;;5055507;28;20104;-72
2023/06/04 07:54:07;;;;;;;13.38;5.57;;;19.90;94.20;;;;;;5055766;28;20020;-72
2023/06/04 07:56:32;;;;;;;8.55;5.00;;;19.90;94.30;;;;;;5055648;28;20031;-71
2023/06/04 07:58:58;;;;;;;13.25;5.63;;;19.90;94.20;;;;;;5055722;28;20060;-71
2023/06/04 08:01:24;;;;;;;8.68;4.85;;;19.90;94.10;;;;;;5037572;28;20116;-71
2023/06/04 08:03:50;;;;;;;8.45;4.63;;;19.90;94.20;;;;;;5055570;28;20036;-71
2023/06/04 08:06:16;;;;;;;10.20;4.75;;;19.90;94.10;;;;;;5055408;28;20021;-72
2023/06/04 08:08:48;;;;;;;7.20;4.75;;;19.90;94.20;;;;;;5055899;28;20098;-72
2023/06/04 08:11:15;;;;;;;9.23;4.47;;;19.90;94.20;;;;;;5112781;22;20055;-70
2023/06/04 08:13:41;;;;;;;10.85;5.00;;;19.90;94.00;;;;;;5116559;28;20020;-71
2023/06/04 08:16:07;;;;;;;8.52;4.95;;;19.90;94.20;;;;;;5097941;28;20030;-70
2023/06/04 08:18:33;;;;;;;9.65;4.75;;;19.80;94.20;;;;;;5116288;28;20110;-69
2023/06/04 08:20:59;;;;;;;8.13;5.45;;;19.90;94.40;;;;;;5097816;28;20105;-71
2023/06/04 08:23:24;;;;;;;12.45;5.65;;;19.90;94.40;;;;;;5115812;28;20024;-71
2023/06/04 08:25:50;;;;;;;7.60;5.05;;;19.80;94.40;;;;;;5115929;28;20047;-69
2023/06/04 08:28:16;;;;;;;8.93;4.97;;;19.80;94.40;;;;;;5115630;28;20036;-69
2023/06/04 08:30:43;;;;;;;10.23;5.57;;;19.80;94.50;;;;;;5115711;28;20098;-69
2023/06/04 08:33:08;;;;;;;12.43;5.43;;;19.90;94.60;;;;;;5115664;28;20051;-69
2023/06/04 08:35:34;;;;;;;8.73;4.90;;;19.80;94.70;;;;;;5115311;28;20047;-69
2023/06/04 08:38:00;;;;;;;8.35;4.72;;;19.80;94.80;;;;;;5107258;28;20031;-68
2023/06/04 08:40:26;;;;;;;11.23;5.25;;;19.80;95.00;;;;;;5085616;28;20490;-68
2023/06/04 08:42:58;;;;;;;9.32;5.82;;;19.80;95.10;;;;;;5105272;28;20102;-69
2023/06/04 08:45:28;;;;;;;8.80;5.35;;;19.80;95.10;;;;;;5105987;28;20546;-72
2023/06/04 08:47:54;;;;;;;9.45;5.63;;;19.90;95.00;;;;;;5105469;28;20039;-71
2023/06/04 08:50:24;;;;;;;7.68;4.88;;;19.90;95.10;;;;;;5104228;28;20382;-72
2023/06/04 08:52:55;;;;;;;8.00;5.68;;;19.90;95.00;;;;;;5105239;28;20361;-72
2023/06/04 08:55:22;;;;;;;8.95;5.32;;;19.90;94.90;;;;;;5106042;28;20020;-72
2023/06/04 08:57:51;;;;;;;10.48;4.63;;;19.90;94.90;;;;;;5104465;28;20388;-72
2023/06/04 09:03:11;;;;;;;6.63;4.60;;;19.90;95.00;;;;;;5081751;28;20028;-72
2023/06/04 09:05:39;;;;;;;9.27;5.53;;;19.90;95.10;;;;;;5085711;28;20111;-72
2023/06/04 09:12:20;;;;;;;6.22;4.80;;;19.90;95.10;;;;;;5014470;28;20177;-72
2023/06/04 09:15:18;;;;;;;5.97;4.47;;;19.90;95.00;;;;;;4982552;28;20049;-71
2023/06/04 09:17:44;;;;;;;8.38;4.90;;;20.00;95.00;;;;;;5083831;28;20092;-71
2023/06/04 09:20:38;;;;;;;6.38;4.57;;;20.00;94.80;;;;;;5087102;28;20043;-72
2023/06/04 09:23:22;;;;;;;9.05;5.38;;;20.00;94.70;;;;;;5094411;28;20077;-71
2023/06/04 09:25:48;;;;;;;11.90;5.30;;;20.00;94.80;;;;;;5094505;28;20488;-70
2023/06/04 09:28:13;;;;;;;7.05;5.18;;;20.00;95.00;;;;;;5094367;28;20058;-72
2023/06/04 09:30:50;;;;;;;7.28;4.80;;;20.10;95.00;;;;;;5076171;28;20027;-72
2023/06/04 09:33:16;;;;;;;7.93;4.93;;;20.20;95.10;;;;;;5076247;28;20353;-72
2023/06/04 09:35:41;;;;;;;9.15;4.45;;;20.30;95.30;;;;;;5093910;28;20028;-72
2023/06/04 09:38:07;;;;;;;5.78;4.75;;;20.40;95.40;;;;;;5092475;28;20834;-72
2023/06/04 09:40:37;;;;;;;5.05;3.80;;;20.50;95.50;;;;;;5091675;28;20028;-71
2023/06/04 09:43:03;;;;;;;4.40;3.80;;;20.60;95.20;;;;;;5091131;28;20023;-72
2023/06/04 09:45:30;;;;;;;5.53;3.97;;;20.70;95.00;;;;;;5092655;28;20027;-72
2023/06/04 09:47:56;;;;;;;6.40;4.38;;;20.80;94.90;;;;;;5093974;28;20032;-72
2023/06/04 09:50:48;;;;;;;5.97;3.70;;;20.90;95.00;;;;;;5093882;28;20020;-71
2023/06/04 09:53:15;;;;;;;8.20;3.70;;;21.00;95.00;;;;;;5090412;28;20040;-71
2023/06/04 09:55:41;;;;;;;5.38;3.22;;;21.20;94.80;;;;;;5093744;28;20544;-72
2023/06/04 09:58:08;;;;;;;5.93;4.05;;;21.20;94.80;;;;;;5093662;28;20123;-72
2023/06/04 10:00:34;;;;;;;3.85;3.30;;;21.30;94.40;;;;;;5093253;28;20048;-71
2023/06/04 10:03:02;;;;;;;5.20;3.53;;;21.40;94.00;;;;;;5093676;28;20024;-70
2023/06/04 10:05:33;;;;;;;4.38;3.25;;;21.40;93.50;;;;;;5093627;28;20032;-71
2023/06/04 10:08:03;;;;;;;5.90;3.15;;;21.50;93.50;;;;;;5093121;28;20313;-71
2023/06/04 10:10:30;;;;;;;4.18;3.35;;;21.50;93.20;;;;;;5103797;28;20039;-70
2023/06/04 10:13:08;;;;;;;6.55;3.70;;;21.60;93.20;;;;;;5113111;28;20024;-70
2023/06/04 10:15:36;;;;;;;4.47;3.60;;;21.60;93.30;;;;;;5113133;28;20028;-70
2023/06/04 10:18:03;;;;;;;4.15;3.20;;;21.60;93.10;;;;;;5113379;28;20470;-71
2023/06/04 10:20:31;;;;;;;7.47;3.70;;;21.70;93.00;;;;;;5094454;28;20023;-71
2023/06/04 10:22:57;;;;;;;4.88;3.55;;;21.70;93.00;;;;;;5112557;28;20076;-71
2023/06/04 10:25:25;;;;;;;4.70;3.25;;;21.80;93.00;;;;;;5112860;28;20024;-71
2023/06/04 10:27:52;;;;;;;5.68;3.47;;;22.00;92.70;;;;;;5114084;28;20114;-72
2023/06/04 10:30:18;;;;;;;4.65;3.25;;;22.10;92.50;;;;;;5113230;28;20020;-71
2023/06/04 10:32:44;;;;;;;6.72;3.22;;;22.20;92.40;;;;;;5096054;28;20399;-71
2023/06/04 10:35:15;;;;;;;4.05;3.33;;;22.40;92.10;;;;;;5114021;28;20368;-71
2023/06/04 10:38:04;;;;;;;5.18;3.80;;;22.40;91.50;;;;;;5095978;28;20038;-71
2023/06/04 10:40:54;;;;;;;4.45;3.22;;;22.50;91.40;;;;;;5113454;28;20020;-72
2023/06/04 10:43:21;;;;;;;4.65;3.60;;;22.60;91.70;;;;;;5113322;28;20123;-71
2023/06/04 10:46:24;;;;;;;6.57;3.42;;;22.70;91.50;;;;;;5113636;28;20098;-72
2023/06/04 10:48:53;;;;;;;6.75;3.97;;;22.70;91.10;;;;;;5113121;28;20434;-71
2023/06/04 10:51:57;;;;;;;7.10;4.22;;;22.80;91.00;;;;;;5113536;28;20012;-71
2023/06/04 10:54:35;;;;;;;5.55;3.78;;;22.80;90.50;;;;;;5030659;28;20037;-71
2023/06/04 10:57:15;;;;;;;5.32;3.53;;;22.80;90.50;;;;;;5109140;28;20350;-71
2023/06/04 10:59:41;;;;;;;8.73;3.28;;;22.80;90.70;;;;;;5109626;28;20028;-72
2023/06/04 11:02:08;;;;;;;3.22;2.92;;;22.90;90.80;;;;;;5110467;28;20626;-71
2023/06/04 11:04:38;;;;;;;3.67;3.28;;;22.90;90.40;;;;;;5112618;28;20020;-71
2023/06/04 11:07:09;;;;;;;3.80;3.00;;;23.00;90.50;;;;;;5112920;28;20085;-72
2023/06/04 11:09:36;;;;;;;3.92;3.33;;;23.10;90.20;;;;;;5094938;28;20431;-70
2023/06/04 11:12:05;;;;;;;3.67;3.28;;;23.10;89.90;;;;;;5113260;28;20643;-71
2023/06/04 11:14:31;;;;;;;6.55;3.17;;;23.20;89.20;;;;;;5112829;28;20016;-71
2023/06/04 11:16:57;;;;;;;4.85;3.30;;;23.20;88.70;;;;;;5094646;28;20081;-71
2023/06/04 11:19:23;;;;;;;5.28;3.50;;;23.30;88.10;;;;;;5116223;28;20070;-71
2023/06/04 11:21:49;;;;;;;5.25;3.40;;;23.30;87.50;;;;;;5117239;28;20032;-71
2023/06/04 11:24:16;;;;;;;3.58;3.22;;;23.30;87.60;;;;;;5114198;28;20077;-71
2023/06/04 11:26:42;;;;;;;4.20;3.67;;;23.30;88.40;;;;;;5104950;28;20396;-70
2023/06/04 11:29:11;;;;;;;5.50;3.70;;;23.30;89.20;;;;;;5103975;28;20020;-71
2023/06/04 11:31:47;;;;;;;5.13;3.88;;;23.40;90.10;;;;;;5107238;28;20019;-71
2023/06/04 11:34:31;;;;;;;4.43;3.10;;;23.40;90.30;;;;;;5106971;28;20107;-71
2023/06/04 11:37:10;;;;;;;5.63;3.58;;;23.40;90.30;;;;;;5106832;28;20054;-71
2023/06/04 11:39:38;;;;;;;7.18;3.67;;;23.50;90.00;;;;;;5101032;28;20019;-70
2023/06/04 11:42:07;;;;;;;3.83;3.42;;;23.60;89.90;;;;;;5089027;28;20178;-68
2023/06/04 11:44:33;;;;;;;5.35;3.60;;;23.60;90.30;;;;;;5114289;28;20057;-69
2023/06/04 11:46:59;;;;;;;4.55;3.40;;;23.60;90.30;;;;;;5116458;28;20023;-68
2023/06/04 11:49:27;;;;;;;4.32;3.42;;;23.70;90.00;;;;;;5116599;28;20023;-68
2023/06/04 11:51:53;;;;;;;3.83;3.40;;;23.80;89.20;;;;;;5113562;28;20426;-69
2023/06/04 11:54:21;;;;;;;3.83;3.53;;;23.80;88.80;;;;;;5104625;28;20028;-68
2023/06/04 11:56:49;;;;;;;4.10;3.63;;;23.90;89.00;;;;;;5097979;28;20093;-69
2023/06/04 11:59:16;;;;;;;8.52;4.00;;;23.90;89.20;;;;;;5115950;28;20019;-69
2023/06/04 12:01:46;;;;;;;4.38;3.97;;;23.90;88.70;;;;;;5116872;28;20024;-68
2023/06/04 12:04:16;;;;;;;7.53;4.00;;;23.90;88.60;;;;;;5116716;28;20023;-71
2023/06/04 12:06:56;;;;;;;5.00;3.65;;;23.90;87.80;;;;;;5116644;28;20115;-71
2023/06/04 12:09:29;;;;;;;4.40;4.00;;;23.90;87.00;;;;;;5116480;28;20082;-70
2023/06/04 12:12:13;;;;;;;9.57;4.38;;;24.00;87.10;;;;;;5116538;28;20110;-71
2023/06/04 12:14:58;;;;;;;5.93;4.13;;;24.00;87.20;;;;;;5105529;28;20047;-72
2023/06/04 12:17:27;;;;;;;6.40;4.10;;;24.10;87.10;;;;;;5106073;28;20128;-70
2023/06/04 12:20:35;;;;;;;5.20;4.30;;;24.10;86.90;;;;;;5094902;28;20019;-71
2023/06/04 12:23:19;;;;;;;4.68;4.18;;;24.20;86.40;;;;;;5114824;28;20154;-72
2023/06/04 12:26:19;;;;;;;6.20;4.10;;;24.20;86.40;;;;;;5113334;28;20024;-72
2023/06/04 12:29:10;;;;;;;6.03;4.30;;;24.30;86.10;;;;;;5071450;28;20052;-71
2023/06/04 12:31:37;;;;;;;6.93;4.20;;;24.30;85.60;;;;;;5105041;28;20017;-71
2023/06/04 12:34:03;;;;;;;7.90;4.55;;;24.30;85.30;;;;;;5106542;28;20623;-70
2023/06/04 12:36:38;;;;;;;7.68;5.00;;;24.30;83.90;;;;;;5105636;28;20417;-71
2023/06/04 12:39:05;;;;;;;9.15;4.43;;;24.20;83.00;;;;;;5105160;28;20032;-71
2023/06/04 12:41:33;;;;;;;7.53;4.45;;;24.10;82.20;;;;;;5105922;28;20043;-71
2023/06/04 12:43:59;;;;;;;6.20;4.55;;;24.00;81.70;;;;;;5111964;28;20054;-71
2023/06/04 12:46:25;;;;;;;6.88;4.90;;;24.00;81.90;;;;;;5113203;28;20523;-71
2023/06/04 12:48:53;;;;;;;6.93;4.20;;;23.80;82.30;;;;;;5113390;28;20052;-71
2023/06/04 12:51:20;;;;;;;6.18;4.07;;;23.70;81.90;;;;;;5115335;28;20384;-71
2023/06/04 12:53:46;;;;;;;6.82;4.28;;;23.60;82.00;;;;;;5115393;28;20114;-72
2023/06/04 12:56:12;;;;;;;8.57;3.97;;;23.50;82.30;;;;;;5116005;28;20359;-73
2023/06/04 12:58:38;;;;;;;8.18;3.88;;;23.40;82.50;;;;;;5113369;28;20036;-70
2023/06/04 13:01:04;;;;;;;6.55;3.70;;;23.40;83.10;;;;;;5112143;28;20026;-72
2023/06/04 13:03:38;;;;;;;8.23;4.45;;;23.30;83.40;;;;;;5094186;28;20074;-71
2023/06/04 13:06:04;;;;;;;6.35;4.40;;;23.20;83.90;;;;;;5093609;28;20494;-73
2023/06/04 13:08:30;;;;;;;6.45;4.25;;;23.20;84.20;;;;;;5097015;28;20027;-72
2023/06/04 13:10:56;;;;;;;7.00;4.30;;;23.10;84.40;;;;;;5097048;28;20051;-72
2023/06/04 13:13:22;;;;;;;6.38;4.25;;;23.00;84.60;;;;;;5092993;28;20108;-72
2023/06/04 13:15:47;;;;;;;5.30;4.10;;;23.10;85.20;;;;;;5093828;28;20066;-72
2023/06/04 13:18:13;;;;;;;6.18;4.10;;;23.10;85.60;;;;;;5094651;28;20038;-73
2023/06/04 13:20:42;;;;;;;5.45;4.25;;;23.00;85.90;;;;;;5094476;28;20012;-73
2023/06/04 13:23:09;;;;;;;5.78;4.20;;;23.00;86.50;;;;;;5094656;28;20035;-72
2023/06/04 13:25:35;;;;;;;5.15;3.58;;;23.10;86.20;;;;;;5093606;28;20062;-73
2023/06/04 13:28:05;;;;;;;4.47;4.00;;;23.20;85.90;;;;;;5094234;28;20391;-72
2023/06/04 13:30:31;;;;;;;4.25;3.70;;;23.30;85.90;;;;;;5094649;28;20028;-72
2023/06/04 13:33:00;;;;;;;5.15;3.78;;;23.40;85.40;;;;;;5094458;28;20067;-72
2023/06/04 13:35:25;;;;;;;8.30;4.32;;;23.40;85.60;;;;;;5094158;28;20016;-72
2023/06/04 13:37:51;;;;;;;6.00;4.13;;;23.40;85.50;;;;;;5094096;28;20031;-73
2023/06/04 13:40:17;;;;;;;6.60;4.05;;;23.50;84.90;;;;;;5094066;28;20024;-72
2023/06/04 13:42:43;;;;;;;8.38;4.28;;;23.50;84.80;;;;;;5094228;28;20052;-72
2023/06/04 13:45:09;;;;;;;5.10;4.00;;;23.50;84.10;;;;;;5094828;28;20035;-73
2023/06/04 13:47:35;;;;;;;4.93;3.75;;;23.50;83.90;;;;;;5094646;28;20028;-73
2023/06/04 13:54:37;;;;;;;4.80;3.80;;;23.70;84.70;;;;;;4915938;29;20568;-72
2023/06/04 13:57:47;;;;;;;4.75;3.60;;;23.90;84.80;;;;;;4917446;28;20468;-72
2023/06/04 14:00:40;;;;;;;6.05;4.07;;;24.10;84.00;;;;;;4990820;28;20037;-72
2023/06/04 14:03:58;;;;;;;5.00;3.78;;;24.20;82.90;;;;;;5078094;28;20048;-73
2023/06/04 14:06:42;;;;;;;5.00;3.75;;;24.30;82.10;;;;;;4991683;28;20038;-72
2023/06/04 14:09:09;;;;;;;5.22;4.00;;;24.40;81.40;;;;;;4992319;28;20049;-72
2023/06/04 14:15:20;;;;;;;4.15;3.38;;;24.60;80.50;;;;;;4994806;28;20128;-72
2023/06/04 14:17:47;;;;;;;5.32;4.18;;;24.70;79.30;;;;;;5051309;28;20181;-72
2023/06/04 14:20:13;;;;;;;4.57;3.80;;;24.80;79.40;;;;;;5080387;28;20438;-72
2023/06/04 14:22:39;;;;;;;7.10;3.67;;;24.80;79.40;;;;;;5113954;28;20023;-73
2023/06/04 14:25:07;;;;;;;5.25;3.35;;;24.90;78.30;;;;;;5113808;28;20027;-73
2023/06/04 14:27:34;;;;;;;4.03;3.58;;;25.00;77.90;;;;;;5113394;28;20027;-72
2023/06/04 14:30:03;;;;;;;7.00;3.90;;;25.00;77.90;;;;;;5113888;28;20157;-72